Time;durP1;ratioP1;P1;durP2;ratioP2;P2;SDS_P1;SDS_P2;PMS_P1;PMS_P2;Temp;Humidity;BMP_temperature;BMP_pressure;BME280_temperature;BME280_humidity;BME280_pressure;Samples;Min_cycle;Max_cycle;Signal;HPM_P1;HPM_P2
2021/09/03 00:00:55;;;;;;;18.20;10.27;;;;;;;12.61;100.00;101655.16;5031420;28;20266;-72
2021/09/03 00:03:21;;;;;;;20.63;10.67;;;;;;;12.60;100.00;101658.78;5032657;28;20291;-71
2021/09/03 00:05:46;;;;;;;20.47;10.47;;;;;;;12.55;100.00;101660.81;5031750;28;20259;-71
2021/09/03 00:08:11;;;;;;;18.87;10.60;;;;;;;12.55;100.00;101659.97;5031419;28;20258;-72
2021/09/03 00:10:37;;;;;;;21.77;10.33;;;;;;;12.52;100.00;101659.16;5031501;28;20175;-71
2021/09/03 00:13:02;;;;;;;18.90;11.37;;;;;;;12.50;100.00;101650.34;5031492;28;20249;-72
2021/09/03 00:15:27;;;;;;;21.20;10.53;;;;;;;12.51;100.00;101638.69;5031411;28;20655;-72
2021/09/03 00:17:53;;;;;;;19.00;10.83;;;;;;;12.48;100.00;101643.31;5031585;28;20180;-71
2021/09/03 00:20:18;;;;;;;17.07;10.73;;;;;;;12.37;100.00;101637.63;5032513;28;20198;-71
2021/09/03 00:22:43;;;;;;;20.40;10.10;;;;;;;12.43;100.00;101634.66;5031383;28;20168;-70
2021/09/03 00:25:10;;;;;;;19.73;11.57;;;;;;;12.45;100.00;101632.75;5033126;28;20286;-71
2021/09/03 00:27:36;;;;;;;21.80;11.50;;;;;;;12.40;100.00;101632.13;5031484;28;20544;-71
2021/09/03 00:30:03;;;;;;;20.40;11.63;;;;;;;12.40;100.00;101635.66;5032840;28;20165;-71
2021/09/03 00:32:29;;;;;;;21.03;10.17;;;;;;;12.38;100.00;101626.84;5032085;28;20176;-71
2021/09/03 00:34:54;;;;;;;19.00;11.07;;;;;;;12.36;100.00;101614.47;5032654;28;20222;-71
2021/09/03 00:37:19;;;;;;;24.07;11.40;;;;;;;12.35;100.00;101615.41;5031440;28;20181;-71
2021/09/03 00:39:44;;;;;;;24.83;11.50;;;;;;;12.34;100.00;101619.91;5031092;28;20261;-71
2021/09/03 00:42:11;;;;;;;20.77;12.07;;;;;;;12.28;100.00;101613.97;5032511;28;20172;-71
2021/09/03 00:44:39;;;;;;;22.57;11.97;;;;;;;12.37;100.00;101618.88;5031135;28;20196;-71
2021/09/03 00:47:05;;;;;;;24.30;11.77;;;;;;;12.31;100.00;101613.84;5031471;28;20198;-71
2021/09/03 00:49:30;;;;;;;24.60;11.83;;;;;;;12.25;100.00;101609.59;5031602;28;20637;-71
2021/09/03 00:51:55;;;;;;;16.77;11.40;;;;;;;12.26;100.00;101614.03;5032654;28;20517;-71
2021/09/03 00:54:21;;;;;;;22.77;11.53;;;;;;;12.21;100.00;101613.38;5031267;28;20192;-71
2021/09/03 00:56:46;;;;;;;22.83;12.17;;;;;;;12.13;100.00;101608.41;5031192;28;20531;-71
2021/09/03 00:59:11;;;;;;;20.40;11.40;;;;;;;12.07;100.00;101606.00;5030856;28;20192;-71
2021/09/03 01:01:37;;;;;;;20.33;10.77;;;;;;;12.04;100.00;101600.81;5031266;28;20235;-71
2021/09/03 01:04:02;;;;;;;22.83;11.07;;;;;;;12.05;100.00;101604.34;5030801;28;20615;-72
2021/09/03 01:06:28;;;;;;;17.27;11.27;;;;;;;12.00;100.00;101596.53;5031356;28;20176;-72
2021/09/03 01:08:53;;;;;;;25.43;11.53;;;;;;;11.95;100.00;101595.88;5031239;28;20183;-71
2021/09/03 01:11:18;;;;;;;18.67;11.23;;;;;;;11.96;100.00;101589.59;5032277;28;20172;-71
2021/09/03 01:13:44;;;;;;;32.10;13.60;;;;;;;11.91;100.00;101583.59;5033106;28;20196;-71
2021/09/03 01:16:09;;;;;;;23.40;12.37;;;;;;;11.96;100.00;101583.38;5035174;28;20179;-71
2021/09/03 01:18:34;;;;;;;26.23;12.13;;;;;;;11.92;100.00;101576.44;5035479;28;20177;-72
2021/09/03 01:21:00;;;;;;;21.07;12.63;;;;;;;11.87;100.00;101577.50;5035476;28;20568;-71
2021/09/03 01:23:25;;;;;;;19.93;12.73;;;;;;;11.86;100.00;101578.44;5035760;28;20200;-71
2021/09/03 01:25:50;;;;;;;20.47;12.17;;;;;;;11.85;100.00;101575.84;5034426;28;20207;-71
2021/09/03 01:28:16;;;;;;;22.40;12.37;;;;;;;11.82;100.00;101579.53;5034522;28;20168;-72
2021/09/03 01:30:41;;;;;;;21.47;12.97;;;;;;;11.81;100.00;101571.56;5034988;28;20176;-71
2021/09/03 01:33:06;;;;;;;22.60;13.70;;;;;;;11.77;100.00;101570.81;5034609;28;20203;-70
2021/09/03 01:35:32;;;;;;;25.73;13.83;;;;;;;11.74;100.00;101575.44;5034401;28;20204;-71
2021/09/03 01:37:58;;;;;;;22.10;13.20;;;;;;;11.74;100.00;101568.28;5034302;28;20525;-71
2021/09/03 01:40:23;;;;;;;24.03;14.37;;;;;;;11.69;100.00;101562.28;5018210;28;20192;-72
2021/09/03 01:42:49;;;;;;;20.87;13.37;;;;;;;11.61;100.00;101553.75;5034924;28;20172;-72
2021/09/03 01:45:14;;;;;;;21.93;13.73;;;;;;;11.56;100.00;101542.41;5035000;28;20363;-71
2021/09/03 01:47:39;;;;;;;23.07;14.27;;;;;;;11.63;100.00;101549.19;5035030;28;20262;-71
2021/09/03 01:50:05;;;;;;;24.93;15.07;;;;;;;11.61;100.00;101544.84;5051453;28;20181;-70
2021/09/03 01:52:31;;;;;;;23.63;14.53;;;;;;;11.67;100.00;101547.25;5051664;28;20172;-71
2021/09/03 01:54:56;;;;;;;27.00;15.80;;;;;;;11.68;100.00;101546.31;5052244;28;20196;-71
2021/09/03 01:57:21;;;;;;;24.63;15.00;;;;;;;11.61;100.00;101542.19;5049251;28;20176;-71
2021/09/03 01:59:47;;;;;;;25.07;14.30;;;;;;;11.59;100.00;101528.88;5047328;28;20580;-71
2021/09/03 02:02:12;;;;;;;27.77;15.00;;;;;;;11.60;100.00;101530.63;5043353;28;20247;-71
2021/09/03 02:04:37;;;;;;;23.43;14.17;;;;;;;11.63;100.00;101526.94;5034019;28;20208;-71
2021/09/03 02:07:03;;;;;;;20.97;14.37;;;;;;;11.64;100.00;101528.69;5033938;28;20562;-71
2021/09/03 02:09:28;;;;;;;23.97;14.30;;;;;;;11.61;100.00;101529.69;5017013;28;20310;-71
2021/09/03 02:11:53;;;;;;;22.63;14.83;;;;;;;11.59;100.00;101523.53;5033414;28;20172;-71
2021/09/03 02:14:19;;;;;;;26.03;14.93;;;;;;;11.57;100.00;101525.41;5033404;28;20196;-71
2021/09/03 02:16:44;;;;;;;20.87;14.93;;;;;;;11.54;100.00;101526.44;5033470;28;20184;-70
2021/09/03 02:19:09;;;;;;;25.87;14.50;;;;;;;11.59;100.00;101523.53;5035494;28;20675;-69
2021/09/03 02:21:35;;;;;;;29.00;14.77;;;;;;;11.59;100.00;101518.19;5033603;28;20176;-72
2021/09/03 02:24:02;;;;;;;27.63;15.07;;;;;;;11.56;100.00;101507.66;5016537;28;20563;-71
2021/09/03 02:26:27;;;;;;;28.23;15.37;;;;;;;11.55;100.00;101506.78;5033135;28;20183;-71
2021/09/03 02:28:52;;;;;;;22.60;14.03;;;;;;;11.56;100.00;101510.31;5033151;28;20181;-71
2021/09/03 02:31:18;;;;;;;21.33;14.03;;;;;;;11.57;100.00;101514.72;5033249;28;20172;-71
2021/09/03 02:33:43;;;;;;;25.43;14.67;;;;;;;11.58;100.00;101506.63;5033028;28;20659;-72
2021/09/03 02:36:09;;;;;;;24.43;14.07;;;;;;;11.57;100.00;101504.91;5033117;28;20577;-72
2021/09/03 02:38:34;;;;;;;32.47;15.67;;;;;;;11.61;100.00;101505.63;5033858;28;20729;-71
2021/09/03 02:41:00;;;;;;;23.23;13.63;;;;;;;11.58;100.00;101506.63;5034127;28;20192;-73
2021/09/03 02:43:25;;;;;;;25.83;14.43;;;;;;;11.61;100.00;101510.09;5034580;28;20218;-72
2021/09/03 02:45:51;;;;;;;30.73;15.20;;;;;;;11.61;100.00;101510.97;5033971;28;20176;-72
2021/09/03 02:48:16;;;;;;;26.67;14.87;;;;;;;11.62;100.00;101501.16;5034395;28;20172;-71
2021/09/03 02:50:41;;;;;;;26.90;14.40;;;;;;;11.59;100.00;101502.16;5032875;28;20222;-71
2021/09/03 02:53:07;;;;;;;26.07;13.83;;;;;;;11.56;100.00;101492.47;5034068;28;20555;-71
2021/09/03 02:55:32;;;;;;;22.40;14.50;;;;;;;11.53;100.00;101489.94;5034270;28;20180;-71
2021/09/03 02:57:57;;;;;;;27.03;14.63;;;;;;;11.52;100.00;101496.22;5016067;28;20172;-71
2021/09/03 03:00:23;;;;;;;26.63;14.83;;;;;;;11.52;100.00;101489.97;5016201;28;20254;-71
2021/09/03 03:02:48;;;;;;;24.30;13.70;;;;;;;11.50;100.00;101487.38;5032669;28;20172;-71
2021/09/03 03:05:14;;;;;;;22.40;14.50;;;;;;;11.48;100.00;101483.91;5016097;28;20171;-72
2021/09/03 03:07:39;;;;;;;23.73;14.00;;;;;;;11.53;100.00;101476.56;5032606;28;20179;-71
2021/09/03 03:10:06;;;;;;;25.30;13.77;;;;;;;11.49;100.00;101480.31;5032509;28;20675;-71
2021/09/03 03:12:31;;;;;;;26.20;14.27;;;;;;;11.51;100.00;101478.44;5015897;28;20172;-72
2021/09/03 03:14:56;;;;;;;24.43;13.83;;;;;;;11.50;100.00;101481.16;5033571;28;20203;-71
2021/09/03 03:17:22;;;;;;;25.60;14.07;;;;;;;11.49;100.00;101474.09;5032621;28;20179;-72
2021/09/03 03:19:47;;;;;;;26.20;14.10;;;;;;;11.50;100.00;101471.34;5032370;28;20195;-71
2021/09/03 03:22:13;;;;;;;22.93;14.47;;;;;;;11.47;100.00;101455.44;5032719;28;20579;-71
2021/09/03 03:24:38;;;;;;;25.63;13.90;;;;;;;11.51;100.00;101457.03;5031982;28;20676;-71
2021/09/03 03:27:03;;;;;;;23.43;15.17;;;;;;;11.50;100.00;101454.44;5032130;28;20184;-71
2021/09/03 03:29:29;;;;;;;21.67;13.10;;;;;;;11.49;100.00;101453.56;5032166;28;20176;-71
2021/09/03 03:31:54;;;;;;;27.20;14.47;;;;;;;11.50;100.00;101444.63;5016171;28;20238;-71
2021/09/03 03:34:20;;;;;;;26.67;14.50;;;;;;;11.50;100.00;101443.75;5033556;28;20676;-72
2021/09/03 03:36:45;;;;;;;24.37;15.10;;;;;;;11.48;100.00;101435.81;5031755;28;20478;-71
2021/09/03 03:39:10;;;;;;;24.97;13.83;;;;;;;11.50;100.00;101433.06;5032314;28;20199;-71
2021/09/03 03:41:36;;;;;;;25.43;14.73;;;;;;;11.53;100.00;101436.47;5015626;28;20183;-72
2021/09/03 03:44:01;;;;;;;30.07;14.90;;;;;;;11.53;100.00;101428.47;5032174;28;20192;-72
2021/09/03 03:46:27;;;;;;;24.47;14.53;;;;;;;11.51;100.00;101432.13;5032413;28;20199;-70
2021/09/03 03:48:52;;;;;;;25.73;14.57;;;;;;;11.53;100.00;101433.81;5015676;28;20168;-72
2021/09/03 03:51:17;;;;;;;30.13;14.63;;;;;;;11.51;100.00;101430.31;5032268;28;20192;-71
2021/09/03 03:53:43;;;;;;;23.50;15.00;;;;;;;11.49;100.00;101434.00;5032030;28;20676;-71
2021/09/03 03:56:08;;;;;;;23.63;14.83;;;;;;;11.48;100.00;101424.25;5032113;28;20176;-72
2021/09/03 03:58:33;;;;;;;28.83;15.60;;;;;;;11.45;100.00;101419.91;5015384;28;20179;-71
2021/09/03 04:00:59;;;;;;;28.90;14.20;;;;;;;11.45;100.00;101417.22;5031920;28;20671;-71
2021/09/03 04:03:24;;;;;;;25.73;15.13;;;;;;;11.44;100.00;101431.53;5044837;22;20251;-73
2021/09/03 04:05:49;;;;;;;24.67;14.67;;;;;;;11.36;100.00;101425.69;5032774;28;20192;-72
2021/09/03 04:08:15;;;;;;;25.13;15.07;;;;;;;11.40;100.00;101424.59;5032617;28;20536;-72
2021/09/03 04:10:40;;;;;;;24.10;15.10;;;;;;;11.38;100.00;101428.28;5032732;28;20180;-72
2021/09/03 04:13:05;;;;;;;30.30;14.30;;;;;;;11.36;100.00;101423.03;5032650;28;20169;-73
2021/09/03 04:15:31;;;;;;;23.23;13.90;;;;;;;11.34;100.00;101429.38;5031586;28;20181;-72
2021/09/03 04:17:56;;;;;;;28.43;16.77;;;;;;;11.36;100.00;101438.19;5032813;28;20207;-73
2021/09/03 04:20:21;;;;;;;21.50;13.43;;;;;;;11.31;100.00;101425.03;5033112;28;20196;-72
2021/09/03 04:22:47;;;;;;;27.57;15.60;;;;;;;11.30;100.00;101425.13;5032901;28;20241;-73
2021/09/03 04:25:12;;;;;;;25.27;14.73;;;;;;;11.29;100.00;101418.91;5032625;28;20333;-72
2021/09/03 04:27:39;;;;;;;28.37;15.37;;;;;;;11.24;100.00;101408.44;5031484;28;20266;-73
2021/09/03 04:30:05;;;;;;;28.23;14.77;;;;;;;11.25;100.00;101404.81;5033151;28;20656;-73
2021/09/03 04:32:30;;;;;;;25.77;14.97;;;;;;;11.22;100.00;101404.09;5033331;28;20536;-73
2021/09/03 04:34:55;;;;;;;23.27;14.73;;;;;;;11.21;100.00;101405.03;5032835;28;20200;-75
2021/09/03 04:37:21;;;;;;;28.83;15.33;;;;;;;11.26;100.00;101408.38;5032676;28;20231;-74
2021/09/03 04:39:46;;;;;;;27.40;15.13;;;;;;;11.22;100.00;101402.31;5032722;28;20227;-74
2021/09/03 04:42:12;;;;;;;28.37;15.30;;;;;;;11.27;100.00;101404.75;5031343;28;20238;-74
2021/09/03 04:44:38;;;;;;;21.27;14.00;;;;;;;11.28;100.00;101393.13;5031634;28;20676;-76
2021/09/03 04:47:04;;;;;;;22.83;14.90;;;;;;;11.26;100.00;101398.53;5031292;28;20183;-69
2021/09/03 04:49:29;;;;;;;25.37;15.10;;;;;;;11.33;100.00;101399.13;5034958;28;20180;-68
2021/09/03 04:51:54;;;;;;;26.60;15.53;;;;;;;11.40;100.00;101386.31;5037435;28;20183;-68
2021/09/03 04:54:20;;;;;;;21.67;14.77;;;;;;;11.41;100.00;101391.59;5037179;28;20279;-68
2021/09/03 04:56:45;;;;;;;30.13;16.33;;;;;;;11.45;100.00;101392.31;5035956;28;20184;-68
2021/09/03 04:59:10;;;;;;;26.30;15.10;;;;;;;11.47;100.00;101398.44;5036180;28;20536;-68
2021/09/03 05:01:36;;;;;;;23.90;14.83;;;;;;;11.47;100.00;101382.41;5035284;28;20189;-68
2021/09/03 05:04:01;;;;;;;31.10;15.37;;;;;;;11.48;100.00;101386.81;5035831;28;20583;-68
2021/09/03 05:06:26;;;;;;;28.23;15.13;;;;;;;11.45;100.00;101378.94;5035943;28;20187;-68
2021/09/03 05:08:51;;;;;;;25.87;15.27;;;;;;;11.48;100.00;101379.66;5034816;28;20180;-68
2021/09/03 05:11:17;;;;;;;29.80;15.17;;;;;;;11.52;100.00;101375.03;5035675;28;20172;-67
2021/09/03 05:13:42;;;;;;;27.67;15.47;;;;;;;11.53;100.00;101372.31;5035694;28;20196;-68
2021/09/03 05:16:07;;;;;;;24.40;14.23;;;;;;;11.57;100.00;101376.56;5034729;28;20191;-67
2021/09/03 05:18:33;;;;;;;28.03;15.67;;;;;;;11.57;100.00;101367.69;5034305;28;20183;-68
2021/09/03 05:20:58;;;;;;;25.70;14.57;;;;;;;11.59;100.00;101366.66;5039050;28;20196;-68
2021/09/03 05:23:23;;;;;;;24.93;15.23;;;;;;;11.62;100.00;101372.81;5040547;28;20208;-68
2021/09/03 05:25:48;;;;;;;25.03;14.80;;;;;;;11.70;100.00;101365.28;5024487;28;20184;-67
2021/09/03 05:28:14;;;;;;;30.90;14.87;;;;;;;11.74;100.00;101367.72;5042110;28;20195;-68
2021/09/03 05:30:39;;;;;;;24.27;14.60;;;;;;;11.78;100.00;101365.78;5040904;28;20180;-68
2021/09/03 05:33:04;;;;;;;33.57;14.53;;;;;;;11.83;100.00;101366.41;5034088;28;20549;-71
2021/09/03 05:35:30;;;;;;;28.07;14.73;;;;;;;11.91;100.00;101360.72;5035686;28;20538;-75
2021/09/03 05:37:55;;;;;;;27.77;14.27;;;;;;;12.08;100.00;101361.59;5033935;28;20184;-68
2021/09/03 05:40:22;;;;;;;26.20;13.87;;;;;;;12.13;100.00;101359.53;5017521;28;20195;-69
2021/09/03 05:42:48;;;;;;;28.60;14.43;;;;;;;12.24;100.00;101368.81;5034077;28;20172;-74
2021/09/03 05:45:14;;;;;;;24.40;13.87;;;;;;;12.27;100.00;101355.31;5033716;28;20664;-74
2021/09/03 05:47:46;;;;;;;27.70;14.33;;;;;;;12.32;100.00;101354.13;5035496;28;20180;-73
2021/09/03 05:50:12;;;;;;;24.13;13.60;;;;;;;12.35;100.00;101353.09;5033837;28;20175;-73
2021/09/03 05:52:37;;;;;;;32.73;14.80;;;;;;;12.38;100.00;101350.25;5034142;28;20176;-73
2021/09/03 05:55:03;;;;;;;24.03;13.03;;;;;;;12.46;100.00;101345.34;5033621;28;20235;-73
2021/09/03 05:57:29;;;;;;;25.20;13.30;;;;;;;12.46;100.00;101353.38;5033745;28;20267;-72
2021/09/03 05:59:54;;;;;;;24.80;13.93;;;;;;;12.51;100.00;101343.28;5033953;28;20679;-73
2021/09/03 06:02:19;;;;;;;20.20;13.37;;;;;;;12.60;100.00;101348.16;5033761;28;20180;-72
2021/09/03 06:04:45;;;;;;;22.43;13.03;;;;;;;12.71;100.00;101355.63;5034963;28;20211;-73
2021/09/03 06:07:10;;;;;;;20.63;13.33;;;;;;;12.76;100.00;101351.75;5033539;28;20192;-72
2021/09/03 06:09:35;;;;;;;22.53;12.00;;;;;;;12.80;100.00;101341.75;5033475;28;20207;-73
2021/09/03 06:12:01;;;;;;;29.40;13.67;;;;;;;12.82;100.00;101342.53;5034861;28;20208;-73
2021/09/03 06:14:26;;;;;;;25.63;14.23;;;;;;;13.00;100.00;101346.00;5033935;28;20230;-74
2021/09/03 06:16:51;;;;;;;23.30;13.57;;;;;;;12.93;100.00;101334.75;5033455;28;20169;-73
2021/09/03 06:19:17;;;;;;;25.90;13.87;;;;;;;13.04;100.00;101347.59;5033261;28;20652;-73
2021/09/03 06:21:43;;;;;;;31.63;15.10;;;;;;;13.07;100.00;101328.66;5034665;28;20258;-72
2021/09/03 06:24:29;;;;;;;23.60;13.73;;;;;;;13.17;100.00;101327.22;5033929;28;20203;-73
2021/09/03 06:26:58;;;;;;;23.87;12.20;;;;;;;13.17;100.00;101335.28;5034341;28;20199;-74
2021/09/03 06:29:42;;;;;;;19.00;13.50;;;;;;;13.26;100.00;101336.56;5034612;28;20192;-73
2021/09/03 06:32:12;;;;;;;21.73;12.73;;;;;;;13.35;100.00;101339.59;5033833;28;20251;-74
2021/09/03 06:34:49;;;;;;;23.23;13.70;;;;;;;13.39;100.00;101346.53;5016464;28;20196;-73
2021/09/03 06:37:16;;;;;;;21.23;13.73;;;;;;;13.44;100.00;101338.22;5033605;28;20164;-73
2021/09/03 06:39:41;;;;;;;25.87;13.53;;;;;;;13.44;100.00;101328.34;5016514;28;20196;-73
2021/09/03 06:42:08;;;;;;;23.73;13.43;;;;;;;13.61;100.00;101351.53;5032903;28;20278;-73
2021/09/03 06:44:34;;;;;;;25.37;13.47;;;;;;;13.70;100.00;101345.63;5034095;28;20222;-74
2021/09/03 06:46:59;;;;;;;22.27;13.53;;;;;;;13.84;100.00;101347.53;5033235;28;20219;-74
2021/09/03 06:49:25;;;;;;;22.37;13.10;;;;;;;13.81;100.00;101342.34;5033012;28;20256;-74
2021/09/03 06:51:50;;;;;;;21.57;12.57;;;;;;;13.81;100.00;101349.53;5016075;28;20180;-73
2021/09/03 06:54:16;;;;;;;22.63;12.30;;;;;;;13.72;100.00;101329.44;5033893;28;20196;-74
2021/09/03 06:56:41;;;;;;;21.00;11.27;;;;;;;13.95;100.00;101344.19;5032788;28;20233;-73
2021/09/03 06:59:07;;;;;;;19.50;11.97;;;;;;;13.92;99.31;101345.25;5032494;28;20176;-73
2021/09/03 07:01:32;;;;;;;22.23;11.33;;;;;;;13.77;98.76;101338.09;5032802;28;20184;-73
2021/09/03 07:03:57;;;;;;;18.20;11.27;;;;;;;13.73;98.63;101334.72;5031956;28;20219;-74
2021/09/03 07:06:23;;;;;;;20.83;10.77;;;;;;;13.62;99.24;101336.28;5032360;28;20242;-73
2021/09/03 07:08:48;;;;;;;22.70;12.07;;;;;;;13.74;99.83;101333.75;5033795;28;20203;-74
2021/09/03 07:11:14;;;;;;;21.20;12.53;;;;;;;13.93;99.14;101338.06;5031668;28;20180;-74
2021/09/03 07:13:39;;;;;;;24.43;11.83;;;;;;;14.13;98.37;101350.31;5033767;28;20464;-74
2021/09/03 07:16:04;;;;;;;23.83;11.70;;;;;;;14.13;96.41;101348.50;5033283;28;20184;-73
2021/09/03 07:18:30;;;;;;;21.10;11.60;;;;;;;14.27;95.41;101356.56;5016415;28;20597;-73
2021/09/03 07:20:55;;;;;;;19.30;11.77;;;;;;;14.17;95.31;101347.34;5033092;28;20200;-73
2021/09/03 07:23:21;;;;;;;20.07;11.57;;;;;;;14.03;94.68;101339.25;5032934;28;20204;-72
2021/09/03 07:25:46;;;;;;;16.07;11.47;;;;;;;14.09;95.24;101325.44;5015874;28;20223;-72
2021/09/03 07:28:11;;;;;;;22.13;11.33;;;;;;;14.02;95.60;101332.13;5016016;28;20270;-74
2021/09/03 07:30:37;;;;;;;21.47;12.47;;;;;;;14.23;95.25;101332.69;5032296;28;20206;-73
2021/09/03 07:33:02;;;;;;;18.87;11.43;;;;;;;14.32;96.56;101330.31;5032020;28;20211;-73
2021/09/03 07:35:27;;;;;;;17.83;10.73;;;;;;;14.47;94.42;101333.03;5032420;28;20172;-72
2021/09/03 07:37:53;;;;;;;18.40;10.97;;;;;;;14.21;93.44;101331.94;5031914;28;20184;-72
2021/09/03 07:40:18;;;;;;;18.30;10.83;;;;;;;14.23;93.51;101330.00;5033652;28;20246;-72
2021/09/03 07:42:44;;;;;;;17.77;10.63;;;;;;;14.28;94.57;101338.66;5032070;28;20651;-72
2021/09/03 07:45:10;;;;;;;18.17;11.07;;;;;;;14.50;94.25;101333.75;5015388;28;20196;-72
2021/09/03 07:47:36;;;;;;;16.93;10.37;;;;;;;14.74;93.24;101331.34;5032079;28;20259;-72
2021/09/03 07:50:01;;;;;;;18.60;10.57;;;;;;;14.87;91.03;101339.53;5032560;28;20194;-73
2021/09/03 07:52:26;;;;;;;14.90;9.60;;;;;;;14.74;90.80;101333.16;5031949;28;20179;-72
2021/09/03 07:54:51;;;;;;;18.00;10.13;;;;;;;14.76;91.50;101333.94;5033028;28;20195;-73
2021/09/03 07:57:17;;;;;;;11.57;9.30;;;;;;;14.70;90.67;101314.56;5031954;28;20188;-74
2021/09/03 07:59:42;;;;;;;13.40;8.93;;;;;;;14.31;91.02;101323.22;5033331;28;20231;-74
2021/09/03 08:02:07;;;;;;;15.37;9.80;;;;;;;14.26;92.41;101324.44;5016605;28;20184;-73
2021/09/03 08:04:33;;;;;;;18.70;10.20;;;;;;;14.30;92.42;101328.69;5033189;28;20273;-72
2021/09/03 08:06:59;;;;;;;15.70;9.40;;;;;;;14.36;91.17;101330.97;5033198;28;20548;-73
2021/09/03 08:09:24;;;;;;;15.63;9.57;;;;;;;14.28;91.45;101333.28;5032060;28;20525;-73
2021/09/03 08:11:50;;;;;;;18.00;10.20;;;;;;;14.34;91.28;101327.53;5033760;28;20663;-73
2021/09/03 08:14:15;;;;;;;15.30;8.93;;;;;;;14.36;91.16;101326.47;5031740;28;20196;-73
2021/09/03 08:16:40;;;;;;;17.87;8.70;;;;;;;14.64;89.74;101338.25;5032091;28;20180;-73
2021/09/03 08:19:06;;;;;;;16.70;9.67;;;;;;;14.69;89.18;101334.31;5031826;28;20180;-73
2021/09/03 08:21:31;;;;;;;16.27;9.80;;;;;;;14.85;88.75;101341.41;5033279;28;20259;-74
2021/09/03 08:23:56;;;;;;;19.60;9.23;;;;;;;15.09;88.23;101344.38;5035653;28;20245;-72
2021/09/03 08:26:22;;;;;;;13.17;8.17;;;;;;;15.30;87.70;101316.13;5037310;28;20195;-74
2021/09/03 08:28:47;;;;;;;16.50;9.07;;;;;;;15.47;86.41;101321.25;5019302;28;20188;-73
2021/09/03 08:31:13;;;;;;;15.00;8.77;;;;;;;15.79;85.59;101304.84;5035877;28;20259;-73
2021/09/03 08:33:38;;;;;;;15.53;8.67;;;;;;;15.24;85.30;101319.22;5036395;28;20673;-72
2021/09/03 08:36:03;;;;;;;12.27;9.00;;;;;;;15.28;85.42;101318.94;5036012;28;20176;-73
2021/09/03 08:38:29;;;;;;;16.60;9.27;;;;;;;15.50;85.35;101322.88;5035733;28;20655;-72
2021/09/03 08:40:58;;;;;;;14.00;8.97;;;;;;;15.59;85.88;101323.16;5035325;28;20722;-72
2021/09/03 08:43:25;;;;;;;20.50;9.57;;;;;;;15.96;84.89;101323.41;5035428;28;20196;-72
2021/09/03 08:45:51;;;;;;;15.80;9.60;;;;;;;15.96;82.56;101331.47;5036267;28;20588;-73
2021/09/03 08:48:20;;;;;;;15.43;9.30;;;;;;;15.97;83.02;101313.50;5036433;28;20204;-72
2021/09/03 08:50:47;;;;;;;13.03;8.30;;;;;;;16.01;83.16;101315.91;5037076;28;20176;-73
2021/09/03 08:53:17;;;;;;;17.27;9.30;;;;;;;16.13;82.83;101316.88;5036770;28;20180;-73
2021/09/03 08:55:44;;;;;;;16.20;9.03;;;;;;;16.18;82.62;101312.06;5036005;28;20176;-72
2021/09/03 08:58:09;;;;;;;17.50;8.50;;;;;;;16.11;82.06;101316.13;5035439;28;20215;-75
2021/09/03 09:00:35;;;;;;;15.10;7.67;;;;;;;16.03;82.37;101307.72;5035799;28;20204;-72
2021/09/03 09:03:03;;;;;;;15.57;8.87;;;;;;;15.71;82.63;101300.00;5035715;28;20591;-72
2021/09/03 09:05:59;;;;;;;17.27;8.53;;;;;;;15.40;84.20;101314.56;5018896;28;20203;-73
2021/09/03 09:08:28;;;;;;;15.67;8.77;;;;;;;15.86;82.67;101323.16;5036613;28;20168;-72
2021/09/03 09:11:14;;;;;;;13.80;9.20;;;;;;;16.09;81.83;101320.75;5035114;28;20164;-73
2021/09/03 09:13:42;;;;;;;15.97;8.53;;;;;;;16.35;81.02;101310.88;5038171;28;20579;-72
2021/09/03 09:16:20;;;;;;;17.97;8.30;;;;;;;16.37;81.24;101312.50;5018489;28;20176;-72
2021/09/03 09:18:50;;;;;;;16.40;8.83;;;;;;;16.54;80.79;101309.50;5035324;28;20172;-73
2021/09/03 09:21:30;;;;;;;17.43;9.33;;;;;;;17.04;79.84;101306.88;5034689;28;20238;-72
2021/09/03 09:23:58;;;;;;;14.83;8.47;;;;;;;17.01;78.11;101307.97;5036722;28;20282;-73
2021/09/03 09:26:27;;;;;;;12.87;8.17;;;;;;;16.98;78.47;101302.78;5036314;28;20179;-73
2021/09/03 09:28:54;;;;;;;13.57;8.43;;;;;;;17.27;78.11;101297.13;5035354;28;20266;-73
2021/09/03 09:31:31;;;;;;;13.40;7.70;;;;;;;17.08;79.11;101303.84;5018188;28;20172;-73
2021/09/03 09:33:57;;;;;;;12.67;8.33;;;;;;;17.54;78.14;101302.31;5018189;28;20231;-73
2021/09/03 09:36:23;;;;;;;14.27;8.80;;;;;;;17.64;77.63;101301.50;5036628;28;20179;-73
2021/09/03 09:38:48;;;;;;;15.87;8.93;;;;;;;17.73;75.47;101302.69;5035100;28;20540;-72
2021/09/03 09:41:20;;;;;;;12.80;8.47;;;;;;;17.64;76.31;101304.19;5034364;28;20269;-73
2021/09/03 09:43:45;;;;;;;13.97;8.40;;;;;;;17.32;76.73;101293.09;5018191;28;20215;-74
2021/09/03 09:46:28;;;;;;;14.23;9.10;;;;;;;17.64;77.27;101295.25;5035800;28;20180;-73
2021/09/03 09:49:03;;;;;;;13.57;9.03;;;;;;;18.03;75.54;101296.78;5034891;28;20164;-73
2021/09/03 09:51:31;;;;;;;12.83;8.40;;;;;;;18.01;75.29;101301.44;5034679;28;20161;-73
2021/09/03 09:53:58;;;;;;;15.77;8.77;;;;;;;17.93;75.52;101293.09;5017919;28;20192;-72
2021/09/03 09:56:24;;;;;;;14.07;9.20;;;;;;;17.69;76.21;101304.75;5035404;28;20640;-73
2021/09/03 09:58:51;;;;;;;17.37;9.40;;;;;;;17.95;74.50;101288.41;5035256;28;20260;-72
2021/09/03 10:01:20;;;;;;;15.23;10.10;;;;;;;17.53;76.95;101292.50;5035437;28;20199;-73
2021/09/03 10:03:47;;;;;;;16.27;8.97;;;;;;;18.00;75.18;101283.53;5059612;22;20226;-68
2021/09/03 10:06:15;;;;;;;14.47;7.77;;;;;;;18.22;74.88;101302.50;5034881;28;20273;-66
2021/09/03 10:08:42;;;;;;;16.70;9.17;;;;;;;18.46;74.46;101298.84;5034297;28;20257;-67
2021/09/03 10:11:07;;;;;;;14.17;8.53;;;;;;;18.61;74.10;101295.81;5033683;28;20213;-67
2021/09/03 10:13:32;;;;;;;13.67;8.20;;;;;;;18.92;72.74;101293.38;5033815;28;20207;-67
2021/09/03 10:15:58;;;;;;;15.20;8.87;;;;;;;19.24;70.79;101288.91;5034839;28;20276;-67
2021/09/03 10:18:23;;;;;;;13.63;8.17;;;;;;;19.20;72.43;101290.16;5035062;28;20639;-67
2021/09/03 10:20:49;;;;;;;16.90;9.23;;;;;;;18.41;73.94;101281.16;5034784;28;20231;-69
2021/09/03 10:23:47;;;;;;;14.10;8.47;;;;;;;17.84;76.01;101288.34;5033605;28;20210;-67
2021/09/03 10:26:13;;;;;;;14.90;9.27;;;;;;;19.01;72.35;101287.25;5022057;28;20275;-67
2021/09/03 10:28:38;;;;;;;13.00;8.90;;;;;;;19.03;71.20;101267.19;5033211;28;20183;-68
2021/09/03 10:31:05;;;;;;;16.13;9.53;;;;;;;18.77;71.67;101279.25;5033606;28;20643;-68
2021/09/03 10:33:34;;;;;;;14.53;8.57;;;;;;;19.62;69.04;101284.91;5033612;28;20230;-68
2021/09/03 10:35:59;;;;;;;15.57;8.80;;;;;;;19.42;68.95;101267.63;5033151;28;20258;-67
2021/09/03 10:38:33;;;;;;;18.77;9.00;;;;;;;19.21;69.25;101275.66;5033390;28;20177;-67
2021/09/03 10:40:59;;;;;;;16.57;9.10;;;;;;;19.26;69.10;101277.97;5034610;28;20203;-67
2021/09/03 10:43:41;;;;;;;15.13;9.00;;;;;;;19.46;70.12;101273.63;5033381;28;20188;-66
2021/09/03 10:46:09;;;;;;;15.07;9.60;;;;;;;19.74;69.11;101267.66;5036814;28;20570;-70
2021/09/03 10:48:34;;;;;;;18.13;10.23;;;;;;;18.76;71.29;101271.28;5033948;28;20540;-69
2021/09/03 10:51:00;;;;;;;14.97;10.40;;;;;;;19.37;69.79;101269.84;5035341;28;20168;-70
2021/09/03 10:53:30;;;;;;;15.33;9.17;;;;;;;20.20;67.98;101269.13;5035611;28;20176;-69
2021/09/03 10:56:06;;;;;;;14.30;10.00;;;;;;;18.92;70.40;101269.91;5039287;28;20196;-71
2021/09/03 10:58:37;;;;;;;18.27;9.00;;;;;;;20.60;66.72;101272.84;5035754;28;20180;-70
2021/09/03 11:01:11;;;;;;;15.50;9.93;;;;;;;22.69;60.27;101272.47;5034970;28;20184;-72
2021/09/03 11:03:40;;;;;;;15.73;8.83;;;;;;;24.28;55.39;101261.97;5034171;28;20175;-69